Time;durP1;ratioP1;P1;durP2;ratioP2;P2;SDS_P1;SDS_P2;PMS_P1;PMS_P2;Temp;Humidity;BMP_temperature;BMP_pressure;BME280_temperature;BME280_humidity;BME280_pressure;Samples;Min_cycle;Max_cycle;Signal;HPM_P1;HPM_P2
2023/12/09 00:02:21;;;;;;;14.80;9.10;;;;;;;2.18;62.66;94971.25;5066701;28;20032;-76
2023/12/09 00:04:46;;;;;;;14.98;9.60;;;;;;;2.13;62.58;94975.91;5051511;28;20503;-76
2023/12/09 00:07:11;;;;;;;15.90;10.38;;;;;;;2.13;62.75;94975.91;5068508;28;20040;-77
2023/12/09 00:09:37;;;;;;;16.35;11.18;;;;;;;2.17;62.92;94981.31;5067273;28;20051;-77
2023/12/09 00:12:03;;;;;;;19.40;10.80;;;;;;;2.20;62.58;94977.84;5067015;28;20043;-76
2023/12/09 00:14:29;;;;;;;15.50;10.02;;;;;;;2.21;62.52;94973.22;5066294;28;20392;-76
2023/12/09 00:16:54;;;;;;;17.23;9.85;;;;;;;2.23;62.39;94976.31;5067072;28;20392;-76
2023/12/09 00:19:20;;;;;;;15.30;10.18;;;;;;;2.18;62.35;94972.03;5067460;28;20081;-76
2023/12/09 00:21:45;;;;;;;16.63;10.45;;;;;;;2.23;62.38;94982.50;5067406;28;20047;-78
2023/12/09 00:24:10;;;;;;;17.60;9.82;;;;;;;2.25;62.11;94976.72;5066473;28;20020;-76
2023/12/09 00:26:37;;;;;;;15.40;10.40;;;;;;;2.24;62.26;94975.94;5050495;28;20025;-76
2023/12/09 00:29:02;;;;;;;16.45;10.75;;;;;;;2.28;62.25;94974.00;5070699;28;20073;-77
2023/12/09 00:31:28;;;;;;;16.70;10.43;;;;;;;2.27;62.14;94963.53;5070163;28;20107;-76
2023/12/09 00:33:53;;;;;;;16.20;10.98;;;;;;;2.26;62.20;94965.47;5067788;28;20067;-76
2023/12/09 00:36:19;;;;;;;14.75;9.13;;;;;;;2.30;62.31;94969.00;5067557;28;20188;-76
2023/12/09 00:38:44;;;;;;;15.45;9.52;;;;;;;2.25;62.13;94958.50;5067424;28;20028;-76
2023/12/09 00:41:09;;;;;;;11.68;8.35;;;;;;;2.23;62.20;94962.75;5065968;28;20406;-76
2023/12/09 00:43:35;;;;;;;13.80;8.63;;;;;;;2.23;62.27;94970.88;5050249;28;20491;-77
2023/12/09 00:46:00;;;;;;;13.25;8.63;;;;;;;2.24;61.89;94975.94;5066570;28;20245;-76
2023/12/09 00:48:25;;;;;;;13.25;8.38;;;;;;;2.20;61.90;94967.00;5050062;28;20109;-77
2023/12/09 00:50:51;;;;;;;12.85;8.02;;;;;;;2.17;61.92;94978.59;5068731;28;20032;-76
2023/12/09 00:53:16;;;;;;;14.18;8.13;;;;;;;2.19;61.69;94967.41;5067360;28;20028;-76
2023/12/09 00:55:41;;;;;;;15.35;8.02;;;;;;;2.16;61.83;94973.56;5068057;28;20475;-76
2023/12/09 00:58:07;;;;;;;13.10;8.80;;;;;;;2.17;61.74;94978.59;5067211;28;20120;-77
2023/12/09 01:00:32;;;;;;;13.98;8.48;;;;;;;2.13;61.73;94972.41;5066537;28;20471;-77
2023/12/09 01:02:58;;;;;;;15.05;8.93;;;;;;;2.07;61.97;94968.50;5066708;28;20058;-77
2023/12/09 01:05:23;;;;;;;14.15;8.60;;;;;;;2.10;62.13;94981.28;5066569;28;20028;-77
2023/12/09 01:07:48;;;;;;;14.38;8.43;;;;;;;2.04;61.97;94969.25;5065199;28;20114;-76
2023/12/09 01:10:14;;;;;;;13.15;9.80;;;;;;;2.09;62.17;94974.31;5065894;28;20084;-76
2023/12/09 01:12:39;;;;;;;13.43;8.48;;;;;;;2.05;62.22;94978.94;5065691;28;20040;-77
2023/12/09 01:15:05;;;;;;;14.50;9.30;;;;;;;2.04;62.33;94983.59;5048732;28;20414;-75
2023/12/09 01:17:30;;;;;;;14.32;8.98;;;;;;;2.01;62.23;94987.09;5065707;28;20033;-77
2023/12/09 01:19:56;;;;;;;14.77;9.13;;;;;;;2.02;62.27;94982.44;5066111;28;20047;-76
2023/12/09 01:22:21;;;;;;;14.50;9.32;;;;;;;1.99;62.53;94981.25;5067453;28;20032;-76
2023/12/09 01:24:46;;;;;;;14.82;9.10;;;;;;;1.92;62.40;94967.66;5047924;28;20029;-76
2023/12/09 01:27:12;;;;;;;13.13;8.65;;;;;;;2.01;62.36;94980.88;5067631;28;20100;-77
2023/12/09 01:29:37;;;;;;;14.48;9.57;;;;;;;1.99;62.32;94975.81;5064475;28;20016;-76
2023/12/09 01:32:03;;;;;;;16.65;9.23;;;;;;;1.94;62.19;94970.75;5065581;28;20559;-76
2023/12/09 01:34:28;;;;;;;13.77;9.05;;;;;;;2.01;62.39;94984.38;5065322;28;20047;-77
2023/12/09 01:36:54;;;;;;;16.42;9.90;;;;;;;1.95;62.42;94977.75;5047960;28;20538;-76
2023/12/09 01:39:19;;;;;;;15.25;8.85;;;;;;;1.93;62.41;94982.00;5048964;28;20021;-76
2023/12/09 01:41:45;;;;;;;13.65;8.60;;;;;;;1.89;62.39;94973.84;5064200;28;20024;-76
2023/12/09 01:44:10;;;;;;;18.13;9.63;;;;;;;1.84;62.55;94969.56;5067333;28;20024;-77
2023/12/09 01:46:36;;;;;;;13.60;8.55;;;;;;;1.86;62.60;94974.59;5064166;28;20063;-75
2023/12/09 01:49:01;;;;;;;11.98;8.93;;;;;;;1.90;62.54;94980.06;5065464;28;20070;-76
2023/12/09 01:51:28;;;;;;;13.05;9.23;;;;;;;1.81;62.58;94967.59;5066300;28;20074;-76
2023/12/09 01:53:54;;;;;;;14.48;9.45;;;;;;;1.90;62.36;94972.69;5066018;28;20056;-77
2023/12/09 01:56:20;;;;;;;13.73;8.82;;;;;;;1.92;62.46;94978.50;5065126;28;20108;-77
2023/12/09 01:58:45;;;;;;;16.67;10.02;;;;;;;1.89;62.69;94971.13;5065049;28;20028;-78
2023/12/09 02:01:12;;;;;;;12.77;9.00;;;;;;;1.94;62.61;94972.69;5067068;28;20077;-78
2023/12/09 02:03:38;;;;;;;13.13;8.48;;;;;;;1.86;62.53;94959.13;5066009;28;20017;-77
2023/12/09 02:06:03;;;;;;;14.98;9.07;;;;;;;1.85;62.39;94956.78;5066830;28;20035;-77
2023/12/09 02:08:29;;;;;;;13.85;8.93;;;;;;;1.83;62.55;94959.84;5064158;28;20552;-77
2023/12/09 02:11:15;;;;;;;14.95;9.45;;;;;;;1.85;62.61;94959.50;5066600;28;20032;-77
2023/12/09 02:13:49;;;;;;;13.80;8.73;;;;;;;1.90;62.33;94964.56;5066850;28;20503;-77
2023/12/09 02:16:22;;;;;;;13.90;8.63;;;;;;;1.92;62.52;94969.59;5065026;28;20017;-77
2023/12/09 02:18:48;;;;;;;13.60;8.88;;;;;;;1.91;62.34;94970.75;5048871;28;20036;-77
2023/12/09 02:21:13;;;;;;;13.75;8.77;;;;;;;1.92;62.40;94959.53;5064927;28;20375;-77
2023/12/09 02:23:38;;;;;;;13.15;8.52;;;;;;;1.91;62.49;94962.63;5048466;28;20024;-75
2023/12/09 02:26:09;;;;;;;12.90;7.75;;;;;;;1.90;62.52;94966.50;5065775;28;20052;-77
2023/12/09 02:28:40;;;;;;;13.15;6.75;;;;;;;1.87;62.65;94962.59;5065386;28;20040;-75
2023/12/09 02:31:16;;;;;;;12.57;7.53;;;;;;;1.88;62.53;94958.72;5064946;28;20033;-77
2023/12/09 02:33:45;;;;;;;11.63;7.30;;;;;;;1.88;62.56;94947.09;5063473;28;20048;-77
2023/12/09 02:36:12;;;;;;;10.88;7.20;;;;;;;1.94;62.45;94954.50;5049049;28;20111;-75
2023/12/09 02:38:39;;;;;;;10.45;6.47;;;;;;;1.88;62.28;94956.00;5047236;28;20032;-77
2023/12/09 02:41:06;;;;;;;11.63;6.88;;;;;;;1.82;62.45;94952.88;5064597;28;20032;-77
2023/12/09 02:43:31;;;;;;;9.88;6.65;;;;;;;1.82;62.52;94952.13;5064503;28;20024;-77
2023/12/09 02:45:57;;;;;;;9.93;6.57;;;;;;;1.75;62.51;94941.25;5063868;28;20036;-76
2023/12/09 02:48:23;;;;;;;12.00;7.05;;;;;;;1.72;62.56;94940.09;5066163;28;20120;-77
2023/12/09 02:50:49;;;;;;;11.05;6.80;;;;;;;1.72;62.49;94945.50;5063619;28;20587;-77
2023/12/09 02:53:15;;;;;;;9.70;6.47;;;;;;;1.73;62.33;94938.94;5066425;28;20096;-76
2023/12/09 02:55:40;;;;;;;11.27;6.97;;;;;;;1.69;62.67;94946.25;5065172;28;20394;-76
2023/12/09 02:58:05;;;;;;;10.93;6.82;;;;;;;1.70;62.69;94949.72;5066385;28;20483;-76
2023/12/09 03:00:31;;;;;;;11.00;7.03;;;;;;;1.62;62.82;94940.03;5065160;28;20028;-76
2023/12/09 03:02:56;;;;;;;12.23;7.55;;;;;;;1.66;62.86;94948.94;5064247;28;20436;-76
2023/12/09 03:05:40;;;;;;;10.15;6.68;;;;;;;1.60;62.79;94941.16;5066109;28;20138;-76
2023/12/09 03:08:05;;;;;;;;;;;;;;;1.63;62.72;94945.06;5065286;28;20838;-75
2023/12/09 03:10:31;;;;;;;11.60;6.72;;;;;;;1.55;62.80;94946.97;5101887;28;19919;-77
2023/12/09 03:12:56;;;;;;;12.18;7.07;;;;;;;1.50;63.10;94938.41;5067209;28;20028;-76
2023/12/09 03:15:21;;;;;;;11.13;7.47;;;;;;;1.54;62.90;94944.59;5069789;28;20100;-76
2023/12/09 03:17:47;;;;;;;10.45;7.10;;;;;;;1.51;62.91;94939.97;5068920;28;20025;-77
2023/12/09 03:20:12;;;;;;;10.70;6.78;;;;;;;1.44;63.12;94938.00;5069822;28;20076;-76
2023/12/09 03:22:38;;;;;;;11.75;6.80;;;;;;;1.41;63.10;94941.44;5069459;28;20020;-77
2023/12/09 03:25:04;;;;;;;11.38;7.13;;;;;;;1.45;63.10;94947.66;5068421;28;20027;-77
2023/12/09 03:27:30;;;;;;;11.48;7.60;;;;;;;1.43;63.14;94944.53;5069509;28;20032;-76
2023/12/09 03:29:55;;;;;;;12.18;7.68;;;;;;;1.30;63.26;94933.25;5066877;28;20549;-77
2023/12/09 03:32:20;;;;;;;12.50;8.25;;;;;;;1.37;63.29;94942.56;5069630;28;20418;-76
2023/12/09 03:34:46;;;;;;;9.43;6.47;;;;;;;1.42;63.27;94955.75;5068028;28;20097;-77
2023/12/09 03:37:11;;;;;;;11.23;7.60;;;;;;;1.41;63.30;94952.28;5069369;28;20506;-77
2023/12/09 03:39:37;;;;;;;10.13;6.70;;;;;;;1.38;63.57;94946.81;5067413;28;20330;-77
2023/12/09 03:42:02;;;;;;;10.73;7.47;;;;;;;1.30;63.70;94941.38;5067368;28;20395;-77
2023/12/09 03:44:28;;;;;;;12.38;7.30;;;;;;;1.33;63.56;94948.75;5067562;28;20028;-77
2023/12/09 03:46:53;;;;;;;11.70;7.30;;;;;;;1.26;63.66;94937.88;5066526;28;20040;-77
2023/12/09 03:49:18;;;;;;;13.23;7.20;;;;;;;1.35;63.67;94948.38;5067879;28;20112;-77
2023/12/09 03:51:44;;;;;;;12.52;7.65;;;;;;;1.32;63.69;94954.56;5067709;28;20499;-76
2023/12/09 03:54:09;;;;;;;9.60;6.80;;;;;;;1.32;63.70;94957.25;5069532;28;20036;-77
2023/12/09 03:56:34;;;;;;;13.43;8.00;;;;;;;1.31;63.95;94966.50;5068197;28;20082;-77
2023/12/09 03:59:00;;;;;;;13.75;7.85;;;;;;;1.25;63.88;94968.81;5051001;28;20471;-77
2023/12/09 04:01:25;;;;;;;12.55;7.78;;;;;;;1.26;63.83;94966.88;5067179;28;20519;-77
2023/12/09 04:03:51;;;;;;;12.02;7.90;;;;;;;1.25;63.96;94971.50;5068121;28;20035;-77
2023/12/09 04:06:17;;;;;;;13.80;7.28;;;;;;;1.21;63.90;94959.13;5050673;28;20499;-77
2023/12/09 04:08:42;;;;;;;12.55;7.65;;;;;;;1.20;64.05;94969.16;5066407;28;20032;-77
2023/12/09 04:11:08;;;;;;;13.88;8.05;;;;;;;1.19;64.10;94967.59;5069253;28;20031;-76
2023/12/09 04:13:33;;;;;;;16.00;8.20;;;;;;;1.19;64.04;94967.59;5066024;28;20063;-77
2023/12/09 04:15:59;;;;;;;11.65;7.30;;;;;;;1.22;63.73;94969.56;5069217;28;20472;-78
2023/12/09 04:18:25;;;;;;;11.25;7.63;;;;;;;1.22;64.06;94977.69;5066463;28;20103;-76
2023/12/09 04:20:50;;;;;;;11.27;7.28;;;;;;;1.18;64.30;94974.16;5065972;28;20119;-76
2023/12/09 04:23:15;;;;;;;12.38;8.35;;;;;;;1.17;64.37;94982.69;5050472;28;20107;-77
2023/12/09 04:25:41;;;;;;;12.55;7.38;;;;;;;1.14;64.51;94984.19;5068654;28;20084;-77
2023/12/09 04:28:07;;;;;;;12.70;7.97;;;;;;;1.16;64.57;94975.72;5069002;28;20063;-77
2023/12/09 04:30:33;;;;;;;11.90;7.85;;;;;;;1.13;64.62;94977.22;5065328;28;20409;-78
2023/12/09 04:32:58;;;;;;;12.70;7.47;;;;;;;1.15;64.64;94972.22;5067481;28;20104;-77
2023/12/09 04:35:23;;;;;;;14.93;9.45;;;;;;;1.12;64.64;94975.66;5067125;28;20056;-78
2023/12/09 04:37:49;;;;;;;12.20;7.60;;;;;;;1.17;64.80;94982.69;5067654;28;20025;-77
2023/12/09 04:40:14;;;;;;;14.60;7.63;;;;;;;1.19;64.91;94981.13;5068353;28;20052;-77
2023/12/09 04:42:40;;;;;;;13.63;8.82;;;;;;;1.18;64.77;94974.16;5070174;28;20032;-78
2023/12/09 04:45:06;;;;;;;17.77;10.35;;;;;;;1.19;64.86;94969.53;5071184;28;20476;-79
2023/12/09 04:47:36;;;;;;;16.85;10.10;;;;;;;1.24;64.87;94990.84;5068047;28;20039;-77
2023/12/09 04:50:04;;;;;;;19.77;10.27;;;;;;;1.22;65.08;94990.47;5069564;28;20046;-77
2023/12/09 04:52:29;;;;;;;14.90;9.18;;;;;;;1.21;64.91;94984.25;5067032;28;20390;-76
2023/12/09 04:54:55;;;;;;;16.52;9.57;;;;;;;1.22;65.18;94993.94;5068458;28;20060;-77
2023/12/09 04:57:21;;;;;;;15.63;9.85;;;;;;;1.23;65.14;94995.50;5065453;28;20097;-77
2023/12/09 04:59:46;;;;;;;16.02;9.50;;;;;;;1.23;65.18;94992.78;5066693;28;20494;-77
2023/12/09 05:02:12;;;;;;;16.02;9.75;;;;;;;1.23;64.95;94989.31;5068099;28;20035;-77
2023/12/09 05:04:37;;;;;;;18.10;9.40;;;;;;;1.32;64.86;95004.09;5065128;28;20560;-77
2023/12/09 05:07:03;;;;;;;17.10;9.45;;;;;;;1.33;65.00;95005.63;5068443;28;20031;-76
2023/12/09 05:09:28;;;;;;;18.17;8.65;;;;;;;1.36;64.92;95006.81;5064945;28;20070;-76
2023/12/09 05:11:53;;;;;;;15.88;9.02;;;;;;;1.39;65.04;94999.88;5067391;28;20158;-77
2023/12/09 05:14:19;;;;;;;15.57;8.20;;;;;;;1.43;64.65;95008.78;5064822;28;20028;-78
2023/12/09 05:16:44;;;;;;;13.60;8.13;;;;;;;1.47;64.41;95006.88;5066436;28;20091;-77
2023/12/09 05:19:10;;;;;;;16.38;9.05;;;;;;;1.44;64.66;95013.06;5065828;28;20522;-77
2023/12/09 05:21:35;;;;;;;15.65;10.25;;;;;;;1.46;64.79;95011.53;5048744;28;20040;-77
2023/12/09 05:24:00;;;;;;;16.98;9.57;;;;;;;1.50;64.50;95022.41;5066341;28;20406;-76
2023/12/09 05:26:30;;;;;;;14.50;9.93;;;;;;;1.48;64.64;95016.56;5066129;28;20020;-78
2023/12/09 05:28:56;;;;;;;15.68;9.30;;;;;;;1.55;64.54;95019.34;5066202;28;20112;-77
2023/12/09 05:31:23;;;;;;;14.82;9.50;;;;;;;1.54;64.57;95018.53;5064245;28;20033;-78
2023/12/09 05:33:49;;;;;;;17.63;10.57;;;;;;;1.60;64.28;95030.59;5049738;28;20048;-76
2023/12/09 05:36:15;;;;;;;15.07;9.95;;;;;;;1.60;64.55;95029.81;5048375;28;20388;-77
2023/12/09 05:38:41;;;;;;;17.15;9.85;;;;;;;1.65;64.38;95037.59;5065956;28;20368;-77
2023/12/09 05:41:08;;;;;;;17.85;9.70;;;;;;;1.70;64.10;95031.03;5049213;28;20475;-77
2023/12/09 05:43:35;;;;;;;15.88;9.95;;;;;;;1.68;63.90;95034.13;5064760;28;20032;-77
2023/12/09 05:46:01;;;;;;;18.30;10.30;;;;;;;1.70;64.12;95031.03;5066374;28;20032;-77
2023/12/09 05:48:26;;;;;;;18.23;10.85;;;;;;;1.70;64.23;95036.47;5065453;28;20529;-77
2023/12/09 05:50:51;;;;;;;17.20;11.52;;;;;;;1.69;64.48;95035.69;5067807;28;20029;-77
2023/12/09 05:53:17;;;;;;;19.63;12.60;;;;;;;1.72;64.54;95043.06;5064408;28;20029;-76
2023/12/09 05:55:42;;;;;;;23.70;13.93;;;;;;;1.51;64.71;95022.03;5067091;28;20028;-76
2023/12/09 05:58:07;;;;;;;21.08;14.55;;;;;;;1.66;65.04;95035.66;5065996;28;20124;-76
2023/12/09 06:00:33;;;;;;;20.75;13.60;;;;;;;1.71;64.91;95041.50;5066140;28;20032;-76
2023/12/09 06:02:58;;;;;;;19.67;12.52;;;;;;;1.74;64.73;95040.75;5065832;28;20024;-76
2023/12/09 06:05:24;;;;;;;21.27;12.35;;;;;;;1.74;64.19;95024.50;5064108;28;20411;-76
2023/12/09 06:07:49;;;;;;;19.20;12.50;;;;;;;1.79;64.16;95040.41;5065907;28;20036;-76
2023/12/09 06:10:15;;;;;;;17.25;11.45;;;;;;;1.75;64.12;95045.03;5063942;28;20403;-77
2023/12/09 06:12:41;;;;;;;20.38;13.00;;;;;;;1.83;64.12;95048.53;5065716;28;20093;-77
2023/12/09 06:15:06;;;;;;;22.27;13.75;;;;;;;1.81;64.30;95048.94;5063936;28;20036;-77
2023/12/09 06:17:32;;;;;;;21.25;12.93;;;;;;;1.80;64.17;95041.97;5065289;28;20374;-77
2023/12/09 06:19:57;;;;;;;21.63;13.35;;;;;;;1.84;64.24;95061.75;5065140;28;20029;-78
2023/12/09 06:22:23;;;;;;;17.88;11.30;;;;;;;1.89;64.15;95054.38;5063737;28;20131;-77
2023/12/09 06:24:48;;;;;;;18.10;11.88;;;;;;;1.89;63.67;95036.19;5066864;28;20029;-77
2023/12/09 06:27:14;;;;;;;18.38;11.40;;;;;;;1.88;63.66;95050.13;5063204;28;20043;-76
2023/12/09 06:29:39;;;;;;;17.25;11.07;;;;;;;1.95;63.61;95047.44;5065291;28;20028;-78
2023/12/09 06:32:05;;;;;;;19.42;11.90;;;;;;;1.99;63.36;95046.31;5063409;28;20078;-76
2023/12/09 06:34:30;;;;;;;17.95;11.35;;;;;;;2.08;63.15;95054.13;5065197;28;20525;-77
2023/12/09 06:36:56;;;;;;;16.83;10.52;;;;;;;2.13;62.95;95065.41;5064047;28;20237;-77
2023/12/09 06:39:21;;;;;;;16.58;11.50;;;;;;;2.21;62.65;95055.34;5064244;28;20051;-77
2023/12/09 06:41:47;;;;;;;15.48;10.50;;;;;;;2.24;62.56;95056.56;5066590;28;20029;-77
2023/12/09 06:44:12;;;;;;;16.17;9.30;;;;;;;2.23;62.33;95060.41;5064821;28;20046;-78
2023/12/09 06:46:38;;;;;;;14.55;9.25;;;;;;;2.25;62.00;95066.25;5065018;28;20056;-77
2023/12/09 06:49:05;;;;;;;16.60;9.05;;;;;;;2.28;61.68;95062.75;5063306;28;20157;-77
2023/12/09 06:51:30;;;;;;;12.75;8.48;;;;;;;2.37;61.43;95061.25;5065212;28;20029;-77
2023/12/09 06:53:56;;;;;;;12.27;8.00;;;;;;;2.32;61.72;95055.41;5065198;28;20039;-77
2023/12/09 06:56:21;;;;;;;14.18;9.40;;;;;;;2.37;61.41;95063.19;5065047;28;20039;-78
2023/12/09 06:58:48;;;;;;;13.07;8.25;;;;;;;2.30;61.42;95058.50;5064633;28;20479;-78
2023/12/09 07:01:21;;;;;;;14.05;9.15;;;;;;;2.41;61.51;95064.00;5064226;28;20036;-77
2023/12/09 07:03:47;;;;;;;15.52;8.75;;;;;;;2.49;60.76;95062.06;5048866;28;20127;-76
2023/12/09 07:06:12;;;;;;;22.52;12.63;;;;;;;2.49;60.77;95072.94;5064746;28;20028;-77
2023/12/09 07:08:39;;;;;;;14.88;8.95;;;;;;;2.47;60.93;95069.84;5065042;28;20050;-76
2023/12/09 07:11:05;;;;;;;14.00;8.73;;;;;;;2.50;60.98;95082.63;5046735;28;20025;-76
2023/12/09 07:13:30;;;;;;;15.57;9.13;;;;;;;2.51;61.27;95087.66;5048081;28;20032;-77
2023/12/09 07:15:56;;;;;;;15.43;9.88;;;;;;;2.45;61.43;95081.03;5064755;28;20062;-76
2023/12/09 07:18:21;;;;;;;14.95;9.48;;;;;;;2.48;61.33;95074.09;5064309;28;20032;-76
2023/12/09 07:20:47;;;;;;;14.95;9.40;;;;;;;2.55;61.16;95082.25;5063631;28;20060;-75
2023/12/09 07:23:14;;;;;;;17.05;9.85;;;;;;;2.56;61.02;95081.09;5063216;28;20618;-77
2023/12/09 07:25:39;;;;;;;15.13;8.65;;;;;;;2.61;60.95;95080.72;5057971;28;20047;-77
2023/12/09 07:28:04;;;;;;;14.63;9.10;;;;;;;2.64;60.53;95077.28;5063244;28;20555;-78
2023/12/09 07:30:30;;;;;;;16.13;9.32;;;;;;;2.65;60.66;95081.53;5048010;28;20033;-77
2023/12/09 07:32:55;;;;;;;17.77;10.50;;;;;;;2.78;60.18;95087.38;5063017;28;20029;-78
2023/12/09 07:35:21;;;;;;;18.85;12.02;;;;;;;2.80;60.37;95093.97;5064208;28;20106;-78
2023/12/09 07:37:46;;;;;;;16.77;10.95;;;;;;;2.84;60.15;95102.16;5063470;28;20039;-78
2023/12/09 07:40:12;;;;;;;14.43;8.88;;;;;;;2.80;59.96;95090.50;5064724;28;20025;-77
2023/12/09 07:42:38;;;;;;;15.88;9.43;;;;;;;2.81;59.82;95106.41;5064186;28;20024;-78
2023/12/09 07:45:04;;;;;;;20.83;10.68;;;;;;;2.80;59.62;95093.97;5064032;28;20183;-76
2023/12/09 07:47:30;;;;;;;16.38;9.00;;;;;;;2.83;59.89;95100.59;5064122;28;20035;-79
2023/12/09 07:49:55;;;;;;;15.55;9.02;;;;;;;2.88;59.78;95105.66;5062075;28;20032;-76
2023/12/09 07:52:21;;;;;;;12.48;8.43;;;;;;;2.92;59.04;95098.28;5063352;28;20025;-79
2023/12/09 07:54:46;;;;;;;15.35;9.35;;;;;;;3.06;58.68;95106.50;5046303;28;20054;-77
2023/12/09 07:57:14;;;;;;;18.65;9.52;;;;;;;3.12;58.60;95106.91;5068114;28;20407;-80
2023/12/09 07:59:39;;;;;;;17.00;10.00;;;;;;;3.14;59.08;95115.44;5068382;28;20119;-77
2023/12/09 08:02:05;;;;;;;16.02;11.30;;;;;;;3.20;58.91;95108.44;5066652;28;20032;-76
2023/12/09 08:04:30;;;;;;;15.07;10.57;;;;;;;3.26;58.73;95106.91;5067542;28;20572;-79
2023/12/09 08:06:55;;;;;;;14.80;9.57;;;;;;;3.27;58.32;95103.06;5048992;28;20093;-78
2023/12/09 08:09:21;;;;;;;13.23;9.35;;;;;;;3.28;57.96;95115.47;5050874;28;20124;-78
2023/12/09 08:11:46;;;;;;;14.02;9.88;;;;;;;3.34;58.48;95124.78;5065565;28;20039;-79
2023/12/09 08:14:15;;;;;;;17.90;10.63;;;;;;;3.43;57.99;95121.69;5051048;28;20025;-77
2023/12/09 08:16:40;;;;;;;18.55;10.45;;;;;;;3.49;57.70;95122.09;5066208;28;20028;-83
2023/12/09 08:19:07;;;;;;;15.43;10.27;;;;;;;3.53;57.27;95114.72;5067900;28;20475;-77
2023/12/09 08:21:36;;;;;;;16.10;9.73;;;;;;;3.57;57.22;95120.94;5050548;28;20043;-81
2023/12/09 08:24:02;;;;;;;15.77;10.73;;;;;;;3.47;57.52;95111.59;5065696;28;20020;-77
2023/12/09 08:26:28;;;;;;;18.33;11.40;;;;;;;3.51;57.42;95112.41;5050581;28;20093;-82
2023/12/09 08:28:54;;;;;;;19.58;12.15;;;;;;;3.47;57.67;95106.19;5048285;28;20836;-85
2023/12/09 08:31:21;;;;;;;13.80;8.90;;;;;;;3.62;56.53;95104.25;5069251;28;20127;-77
2023/12/09 08:33:46;;;;;;;16.27;9.98;;;;;;;3.78;56.64;95122.88;5047946;28;20071;-77
2023/12/09 08:36:12;;;;;;;15.35;9.75;;;;;;;3.83;56.44;95120.56;5067148;28;20568;-77
2023/12/09 08:38:37;;;;;;;16.52;9.77;;;;;;;3.84;56.46;95116.69;5065908;28;20032;-77
2023/12/09 08:41:03;;;;;;;14.43;9.07;;;;;;;3.88;56.13;95119.41;5065831;28;20059;-77
2023/12/09 08:43:28;;;;;;;17.88;9.77;;;;;;;3.97;55.96;95119.78;5067312;28;20033;-78
2023/12/09 08:45:53;;;;;;;17.45;11.20;;;;;;;4.03;55.71;95123.69;5065092;28;20089;-78
2023/12/09 08:48:19;;;;;;;18.75;10.13;;;;;;;4.02;55.69;95118.63;5067419;28;20502;-78
2023/12/09 08:50:45;;;;;;;18.20;8.68;;;;;;;4.06;55.94;95125.59;5066050;28;20024;-78
2023/12/09 08:53:12;;;;;;;14.55;8.55;;;;;;;3.99;55.04;95101.91;5071114;28;20061;-77
2023/12/09 08:55:38;;;;;;;13.55;9.10;;;;;;;4.13;55.12;95117.44;5070016;28;20024;-79
2023/12/09 08:58:03;;;;;;;15.15;9.32;;;;;;;4.19;55.37;95126.00;5071228;28;20547;-78
2023/12/09 09:00:30;;;;;;;15.48;8.98;;;;;;;4.21;55.25;95118.22;5066877;28;20029;-78
2023/12/09 09:02:55;;;;;;;13.35;8.48;;;;;;;4.31;55.07;95120.16;5065843;28;20024;-78
2023/12/09 09:05:24;;;;;;;14.55;8.50;;;;;;;4.39;55.21;95116.22;5066895;28;20367;-75
2023/12/09 09:07:49;;;;;;;13.07;9.07;;;;;;;4.44;54.92;95115.84;5065962;28;20025;-76
2023/12/09 09:10:15;;;;;;;12.23;8.10;;;;;;;4.48;54.50;95113.88;5068210;28;20108;-80
2023/12/09 09:12:40;;;;;;;14.13;8.13;;;;;;;4.52;54.88;95119.31;5048449;28;20408;-78
2023/12/09 09:15:07;;;;;;;13.60;9.43;;;;;;;4.49;54.84;95109.22;5049928;28;20052;-79
2023/12/09 09:17:34;;;;;;;20.08;12.32;;;;;;;4.51;55.15;95117.75;5065660;28;20055;-78
2023/12/09 09:20:00;;;;;;;22.27;11.02;;;;;;;4.58;54.58;95106.84;5065184;28;20031;-78
2023/12/09 09:22:25;;;;;;;17.25;10.35;;;;;;;4.64;54.54;95107.22;5066092;28;20032;-78
2023/12/09 09:24:51;;;;;;;17.65;10.27;;;;;;;4.65;54.43;95087.00;5064579;28;20129;-79
2023/12/09 09:27:16;;;;;;;14.52;8.32;;;;;;;4.76;53.76;95095.91;5066562;28;20127;-79
2023/12/09 09:29:42;;;;;;;14.63;7.07;;;;;;;4.75;53.49;95091.59;5047828;28;20020;-77
2023/12/09 09:32:07;;;;;;;10.60;7.00;;;;;;;4.71;54.08;95078.03;5067711;28;20034;-79
2023/12/09 09:34:33;;;;;;;9.95;6.40;;;;;;;4.76;53.77;95091.22;5065697;28;20137;-79
2023/12/09 09:36:58;;;;;;;9.88;6.25;;;;;;;4.79;53.26;95089.66;5066579;28;20029;-77
2023/12/09 09:39:24;;;;;;;9.85;5.97;;;;;;;4.79;52.78;95076.03;5067068;28;20491;-79
2023/12/09 09:42:11;;;;;;;8.15;5.38;;;;;;;4.91;52.60;95072.88;5065414;28;20020;-81
2023/12/09 09:44:38;;;;;;;10.82;6.63;;;;;;;4.97;52.49;95073.22;5067402;28;20064;-80
2023/12/09 09:47:04;;;;;;;9.55;6.72;;;;;;;5.04;52.47;95068.50;5063484;28;20031;-81
2023/12/09 09:49:36;;;;;;;9.13;6.15;;;;;;;5.04;52.32;95070.44;5048828;28;20020;-79
2023/12/09 09:52:02;;;;;;;9.25;6.18;;;;;;;5.09;51.96;95069.25;5049222;28;20032;-84
2023/12/09 09:54:29;;;;;;;13.95;7.65;;;;;;;5.17;52.09;95077.03;5065742;28;20065;-84
2023/12/09 09:56:58;;;;;;;9.88;6.50;;;;;;;5.13;51.86;95064.59;5051466;28;20032;-84
2023/12/09 09:59:24;;;;;;;10.40;6.82;;;;;;;5.17;51.86;95074.28;5046935;28;20481;-82
2023/12/09 10:01:49;;;;;;;12.18;6.57;;;;;;;5.21;52.21;95076.97;5066191;28;20036;-80
2023/12/09 10:04:15;;;;;;;8.32;5.15;;;;;;;5.23;52.11;95080.88;5062206;28;20410;-79
2023/12/09 10:06:42;;;;;;;7.95;5.70;;;;;;;5.32;51.30;95077.69;5065628;28;20436;-77
2023/12/09 10:09:07;;;;;;;8.45;5.50;;;;;;;5.25;51.57;95089.41;5064315;28;20059;-77
2023/12/09 10:11:32;;;;;;;5.55;4.68;;;;;;;5.22;51.67;95081.28;5064695;28;20107;-77
2023/12/09 10:13:58;;;;;;;8.80;5.65;;;;;;;5.13;51.94;95073.53;5067193;28;20035;-77
2023/12/09 10:16:23;;;;;;;10.40;6.55;;;;;;;5.15;52.10;95076.63;5064805;28;20029;-75
2023/12/09 10:18:49;;;;;;;9.38;5.60;;;;;;;5.20;52.48;95078.94;5064943;28;20083;-77
2023/12/09 10:21:15;;;;;;;7.18;5.22;;;;;;;5.26;52.46;95071.13;5046720;28;20048;-76
2023/12/09 10:23:41;;;;;;;9.20;4.80;;;;;;;5.27;52.14;95076.16;5065582;28;20047;-76
2023/12/09 10:26:07;;;;;;;7.63;5.07;;;;;;;5.29;52.03;95067.59;5064049;28;20422;-76
2023/12/09 10:28:33;;;;;;;7.47;4.90;;;;;;;5.30;52.00;95069.91;5064922;28;20024;-76
2023/12/09 10:31:00;;;;;;;8.05;5.50;;;;;;;5.30;51.65;95064.47;5064480;28;20024;-81
2023/12/09 10:33:29;;;;;;;9.50;5.20;;;;;;;5.30;51.91;95069.16;5064922;28;20025;-83
2023/12/09 10:35:55;;;;;;;7.95;5.10;;;;;;;5.38;51.34;95062.47;5067035;28;20479;-79
2023/12/09 10:38:21;;;;;;;9.75;6.53;;;;;;;5.42;51.02;95059.72;5063206;28;20564;-80
2023/12/09 10:40:46;;;;;;;9.18;6.32;;;;;;;5.25;51.07;95040.34;5065407;28;20028;-78
2023/12/09 10:43:13;;;;;;;13.57;7.93;;;;;;;5.39;51.19;95058.59;5063693;28;20047;-78
2023/12/09 10:45:38;;;;;;;11.20;6.07;;;;;;;5.32;51.26;95050.44;5046593;28;20024;-78
2023/12/09 10:48:03;;;;;;;9.32;6.10;;;;;;;5.28;51.46;95046.97;5064123;28;20032;-81
2023/12/09 10:50:30;;;;;;;11.13;6.60;;;;;;;5.25;51.93;95037.63;5064316;28;20028;-80
2023/12/09 10:52:56;;;;;;;8.73;5.93;;;;;;;5.33;52.06;95049.25;5048476;28;20016;-78
2023/12/09 10:55:22;;;;;;;9.48;6.70;;;;;;;5.39;51.70;95053.13;5063428;28;20032;-79
2023/12/09 10:57:50;;;;;;;13.45;7.40;;;;;;;5.26;51.61;95046.56;5065108;28;20020;-79
2023/12/09 11:00:15;;;;;;;15.15;7.65;;;;;;;5.25;51.71;95036.84;5064642;28;20056;-80
2023/12/09 11:02:42;;;;;;;13.85;6.82;;;;;;;5.26;52.00;95049.31;5065116;28;20052;-78
2023/12/09 11:05:09;;;;;;;9.82;6.07;;;;;;;5.19;52.18;95039.22;5063794;28;20047;-78
2023/12/09 11:07:35;;;;;;;9.63;6.22;;;;;;;5.21;52.19;95041.53;5064546;28;20478;-79
2023/12/09 11:10:06;;;;;;;13.32;6.13;;;;;;;5.21;52.05;95033.38;5048215;28;20119;-79
2023/12/09 11:12:32;;;;;;;12.60;6.05;;;;;;;5.21;52.12;95036.88;5062004;28;20021;-78
2023/12/09 11:15:13;;;;;;;12.95;8.23;;;;;;;5.15;52.19;95033.00;5065061;28;20441;-80
2023/12/09 11:17:40;;;;;;;17.02;9.93;;;;;;;5.15;52.07;95032.25;5063170;28;20285;-79
2023/12/09 11:20:14;;;;;;;11.93;7.30;;;;;;;5.19;52.02;95033.78;5048502;28;20062;-79
2023/12/09 11:22:40;;;;;;;12.20;7.35;;;;;;;5.18;52.02;95024.06;5063900;28;20172;-79
2023/12/09 11:25:18;;;;;;;13.05;7.45;;;;;;;5.13;52.00;95031.88;5063961;28;20479;-78
2023/12/09 11:27:44;;;;;;;12.18;7.35;;;;;;;5.12;52.04;95031.09;5064759;28;20123;-78
2023/12/09 11:30:30;;;;;;;10.52;6.32;;;;;;;5.12;51.95;95024.88;5063745;28;20111;-79